createdAt,value
2019-06-15T00:00:36.162Z,23.51
2019-06-15T00:01:40.372Z,23.49
2019-06-15T00:03:02.082Z,23.53
2019-06-15T00:04:06.303Z,23.49
2019-06-15T00:05:09.902Z,23.47
2019-06-15T00:06:14.054Z,23.43
2019-06-15T00:07:17.625Z,23.41
2019-06-15T00:08:21.788Z,23.43
2019-06-15T00:09:25.335Z,23.39
2019-06-15T00:10:29.480Z,23.38
2019-06-15T00:11:33.017Z,23.42
2019-06-15T00:12:37.029Z,23.42
2019-06-15T00:13:40.509Z,23.47
2019-06-15T00:14:44.358Z,23.46
2019-06-15T00:15:47.894Z,23.46
2019-06-15T00:16:52.019Z,23.44
2019-06-15T00:17:55.478Z,23.45
2019-06-15T00:18:59.555Z,23.51
2019-06-15T00:20:04.577Z,23.46
2019-06-15T00:21:08.699Z,23.43
2019-06-15T00:22:12.217Z,23.32
2019-06-15T00:23:17.433Z,23.27
2019-06-15T00:24:34.559Z,23.25
2019-06-15T00:25:26.777Z,23.20
2019-06-15T00:26:30.318Z,23.22
2019-06-15T00:27:34.520Z,23.26
2019-06-15T00:28:38.094Z,23.29
2019-06-15T00:29:42.267Z,23.28
2019-06-15T00:30:45.793Z,23.23
2019-06-15T00:31:49.902Z,23.24
2019-06-15T00:32:53.367Z,23.23
2019-06-15T00:33:57.492Z,23.24
2019-06-15T00:35:00.986Z,23.29
2019-06-15T00:36:05.517Z,23.29
2019-06-15T00:37:08.970Z,23.22
2019-06-15T00:38:13.069Z,23.23
2019-06-15T00:39:16.712Z,23.22
2019-06-15T00:40:20.975Z,23.22
2019-06-15T00:41:24.498Z,23.24
2019-06-15T00:42:28.607Z,23.22
2019-06-15T00:43:32.236Z,23.27
2019-06-15T00:44:36.275Z,23.34
2019-06-15T00:45:39.725Z,23.38
2019-06-15T00:46:43.928Z,23.41
2019-06-15T00:47:47.444Z,23.41
2019-06-15T00:48:52.654Z,23.41
2019-06-15T00:49:56.241Z,23.31
2019-06-15T00:51:00.383Z,23.31
2019-06-15T00:52:03.921Z,23.26
2019-06-15T00:53:07.966Z,23.30
2019-06-15T00:54:11.616Z,23.25
2019-06-15T00:55:15.788Z,23.32
2019-06-15T00:56:19.300Z,23.28
2019-06-15T00:57:23.491Z,23.22
2019-06-15T00:58:26.935Z,23.21
2019-06-15T00:59:31.080Z,23.27
2019-06-15T01:00:34.658Z,23.33
2019-06-15T01:01:38.797Z,23.33
2019-06-15T01:02:42.229Z,23.34
2019-06-15T01:03:46.268Z,23.33
2019-06-15T01:04:49.782Z,23.34
2019-06-15T01:05:53.877Z,23.20
2019-06-15T01:06:57.359Z,23.15
2019-06-15T01:08:01.466Z,23.21
2019-06-15T01:09:06.855Z,23.23
2019-06-15T01:10:11.368Z,23.19
2019-06-15T01:11:14.817Z,23.22
2019-06-15T01:12:19.005Z,23.25
2019-06-15T01:13:22.521Z,23.29
2019-06-15T01:14:26.684Z,23.24
2019-06-15T01:15:30.334Z,23.19
2019-06-15T01:16:34.364Z,23.22
2019-06-15T01:17:37.997Z,23.20
2019-06-15T01:18:42.188Z,23.17
2019-06-15T01:19:45.705Z,23.16
2019-06-15T01:20:50.685Z,23.16
2019-06-15T01:21:54.268Z,23.18
2019-06-15T01:22:58.414Z,23.20
2019-06-15T01:24:01.958Z,23.24
2019-06-15T01:25:11.053Z,23.28
2019-06-15T01:26:14.941Z,23.24
2019-06-15T01:27:19.226Z,23.02
2019-06-15T01:28:22.948Z,23.05
2019-06-15T01:29:27.168Z,23.16
2019-06-15T01:30:30.855Z,23.18
2019-06-15T01:31:35.274Z,23.23
2019-06-15T01:32:38.975Z,23.24
2019-06-15T01:33:43.162Z,23.25
2019-06-15T01:34:46.646Z,23.30
2019-06-15T01:35:50.835Z,23.32
2019-06-15T01:36:54.602Z,23.33
2019-06-15T01:37:58.722Z,23.35
2019-06-15T01:39:02.237Z,23.36
2019-06-15T01:40:08.681Z,23.36
2019-06-15T01:41:12.317Z,23.33
2019-06-15T01:42:16.163Z,23.34
2019-06-15T01:43:19.614Z,23.38
2019-06-15T01:44:23.763Z,23.32
2019-06-15T01:45:27.568Z,23.24
2019-06-15T01:46:31.702Z,23.21
2019-06-15T01:47:35.516Z,23.19
2019-06-15T01:48:39.642Z,23.09
2019-06-15T01:49:43.240Z,23.09
2019-06-15T01:50:47.570Z,23.10
2019-06-15T01:51:51.119Z,23.14
2019-06-15T01:52:55.228Z,23.10
2019-06-15T01:53:58.818Z,23.10
2019-06-15T01:55:02.998Z,23.13
2019-06-15T01:56:06.525Z,23.17
2019-06-15T01:57:10.673Z,23.17
2019-06-15T01:58:14.194Z,23.13
2019-06-15T01:59:18.317Z,23.11
2019-06-15T02:00:24.864Z,23.12
2019-06-15T02:01:28.989Z,23.11
2019-06-15T02:02:32.503Z,23.00
2019-06-15T02:03:36.698Z,22.95
2019-06-15T02:04:40.293Z,22.84
2019-06-15T02:05:44.329Z,22.74
2019-06-15T02:06:47.933Z,22.65
2019-06-15T02:07:52.251Z,22.64
2019-06-15T02:08:55.932Z,22.71
2019-06-15T02:10:00.088Z,22.77
2019-06-15T02:11:03.619Z,22.83
2019-06-15T02:12:07.830Z,22.84
2019-06-15T02:13:11.420Z,22.83
2019-06-15T02:14:15.789Z,22.81
2019-06-15T02:15:19.313Z,22.84
2019-06-15T02:16:23.483Z,22.82
2019-06-15T02:17:26.940Z,22.82
2019-06-15T02:18:32.485Z,22.80
2019-06-15T02:19:35.947Z,22.79
2019-06-15T02:20:40.074Z,22.82
2019-06-15T02:21:43.592Z,22.80
2019-06-15T02:22:47.727Z,22.80
2019-06-15T02:23:51.179Z,22.81
2019-06-15T02:24:55.244Z,22.80
2019-06-15T02:25:58.751Z,22.80
2019-06-15T02:27:02.932Z,22.83
2019-06-15T02:28:06.544Z,22.84
2019-06-15T02:29:10.603Z,22.70
2019-06-15T02:30:14.324Z,22.73
2019-06-15T02:31:18.395Z,22.78
2019-06-15T02:32:21.857Z,22.79
2019-06-15T02:33:26.096Z,22.78
2019-06-15T02:34:29.625Z,22.75
2019-06-15T02:35:33.759Z,22.58
2019-06-15T02:36:37.303Z,22.55
2019-06-15T02:37:41.402Z,22.49
2019-06-15T02:38:44.937Z,22.52
2019-06-15T02:39:49.126Z,22.53
2019-06-15T02:40:52.680Z,22.56
2019-06-15T02:41:56.961Z,22.57
2019-06-15T02:43:00.575Z,22.56
2019-06-15T02:44:05.044Z,22.56
2019-06-15T02:45:08.838Z,22.59
2019-06-15T02:46:13.276Z,22.64
2019-06-15T02:47:16.893Z,22.65
2019-06-15T02:48:21.006Z,22.64
2019-06-15T02:49:24.601Z,22.68
2019-06-15T02:50:29.818Z,22.73
2019-06-15T02:51:33.818Z,22.72
2019-06-15T02:52:38.106Z,22.67
2019-06-15T02:53:41.567Z,22.69
2019-06-15T02:54:46.523Z,22.65
2019-06-15T02:55:51.148Z,22.64
2019-06-15T02:56:54.986Z,22.61
2019-06-15T02:57:58.454Z,22.59
2019-06-15T02:59:02.717Z,22.60
2019-06-15T03:00:08.048Z,22.58
2019-06-15T03:01:12.253Z,22.53
2019-06-15T03:02:15.853Z,22.53
2019-06-15T03:03:19.953Z,22.55
2019-06-15T03:04:23.478Z,22.55
2019-06-15T03:05:27.689Z,22.55
2019-06-15T03:06:31.431Z,22.52
2019-06-15T03:07:35.718Z,22.52
2019-06-15T03:08:39.323Z,22.52
2019-06-15T03:09:43.464Z,22.54
2019-06-15T03:10:46.983Z,22.55
2019-06-15T03:11:51.400Z,22.46
2019-06-15T03:12:54.939Z,22.46
2019-06-15T03:14:00.641Z,22.46
2019-06-15T03:15:06.538Z,22.37
2019-06-15T03:16:11.638Z,22.37
2019-06-15T03:17:15.141Z,22.36
2019-06-15T03:18:19.273Z,22.38
2019-06-15T03:19:22.961Z,22.43
2019-06-15T03:20:27.194Z,22.41
2019-06-15T03:21:30.735Z,22.47
2019-06-15T03:22:35.009Z,22.44
2019-06-15T03:23:38.548Z,22.43
2019-06-15T03:24:42.558Z,22.44
2019-06-15T03:25:46.118Z,22.48
2019-06-15T03:26:50.278Z,22.50
2019-06-15T03:27:53.681Z,22.51
2019-06-15T03:28:57.763Z,22.53
2019-06-15T03:30:01.371Z,22.53
2019-06-15T03:31:06.613Z,22.55
2019-06-15T03:32:10.126Z,22.59
2019-06-15T03:33:14.270Z,22.63
2019-06-15T03:34:17.778Z,22.60
2019-06-15T03:35:22.058Z,22.61
2019-06-15T03:36:25.734Z,22.63
2019-06-15T03:37:29.917Z,22.63
2019-06-15T03:38:33.594Z,22.66
2019-06-15T03:39:37.627Z,22.57
2019-06-15T03:40:42.502Z,22.52
2019-06-15T03:41:46.600Z,22.51
2019-06-15T03:42:50.227Z,22.50
2019-06-15T03:43:54.272Z,22.43
2019-06-15T03:44:57.713Z,22.36
2019-06-15T03:46:02.720Z,22.33
2019-06-15T03:47:06.416Z,22.30
2019-06-15T03:48:10.525Z,22.32
2019-06-15T03:49:14.226Z,22.30
2019-06-15T03:50:18.605Z,22.24
2019-06-15T03:51:22.151Z,22.16
2019-06-15T03:52:26.262Z,22.13
2019-06-15T03:53:29.781Z,21.97
2019-06-15T03:54:34.011Z,21.92
2019-06-15T03:55:40.437Z,21.86
2019-06-15T03:56:43.401Z,21.87
2019-06-15T03:57:46.938Z,21.95
2019-06-15T03:58:51.012Z,21.96
2019-06-15T03:59:54.678Z,22.02
2019-06-15T04:01:22.834Z,22.08
2019-06-15T04:02:26.304Z,22.13
2019-06-15T04:03:30.461Z,22.05
2019-06-15T04:04:34.689Z,21.90
2019-06-15T04:05:38.799Z,21.92
2019-06-15T04:06:42.403Z,21.86
2019-06-15T04:07:46.575Z,21.78
2019-06-15T04:08:50.166Z,21.74
2019-06-15T04:09:54.206Z,21.72
2019-06-15T04:10:57.705Z,21.79
2019-06-15T04:12:01.786Z,21.87
2019-06-15T04:13:05.730Z,21.82
2019-06-15T04:14:10.005Z,21.79
2019-06-15T04:15:13.624Z,21.73
2019-06-15T04:16:17.573Z,21.71
2019-06-15T04:17:22.244Z,21.73
2019-06-15T04:18:26.316Z,21.78
2019-06-15T04:19:29.821Z,21.76
2019-06-15T04:20:34.100Z,21.78
2019-06-15T04:21:37.753Z,21.85
2019-06-15T04:22:41.859Z,21.89
2019-06-15T04:23:45.658Z,21.78
2019-06-15T04:24:49.734Z,21.63
2019-06-15T04:25:53.256Z,21.49
2019-06-15T04:26:57.546Z,21.51
2019-06-15T04:28:01.104Z,21.52
2019-06-15T04:29:05.383Z,21.51
2019-06-15T04:30:09.284Z,21.45
2019-06-15T04:31:13.436Z,21.40
2019-06-15T04:32:16.961Z,21.40
2019-06-15T04:33:20.754Z,21.40
2019-06-15T04:34:24.297Z,21.28
2019-06-15T04:35:28.402Z,21.32
2019-06-15T04:36:31.881Z,21.35
2019-06-15T04:37:36.004Z,21.32
2019-06-15T04:38:39.526Z,21.28
2019-06-15T04:39:43.593Z,21.30
2019-06-15T04:40:47.057Z,21.33
2019-06-15T04:41:51.112Z,21.35
2019-06-15T04:42:54.693Z,21.39
2019-06-15T04:43:58.763Z,21.46
2019-06-15T04:45:02.371Z,21.50
2019-06-15T04:46:06.564Z,21.43
2019-06-15T04:47:10.128Z,21.40
2019-06-15T04:48:14.433Z,21.37
2019-06-15T04:49:18.060Z,21.30
2019-06-15T04:50:22.415Z,21.35
2019-06-15T04:51:25.873Z,21.41
2019-06-15T04:52:30.203Z,21.41
2019-06-15T04:53:34.417Z,21.45
2019-06-15T04:54:38.535Z,21.39
2019-06-15T04:55:42.046Z,21.31
2019-06-15T04:56:51.013Z,21.26
2019-06-15T04:57:51.378Z,21.22
2019-06-15T04:58:55.440Z,21.23
2019-06-15T04:59:58.974Z,21.26
2019-06-15T05:01:03.252Z,21.28
2019-06-15T05:02:06.837Z,21.31
2019-06-15T05:03:11.194Z,21.32
2019-06-15T05:04:14.653Z,21.42
2019-06-15T05:05:19.051Z,21.45
2019-06-15T05:06:22.507Z,21.45
2019-06-15T05:07:26.559Z,21.46
2019-06-15T05:08:30.056Z,21.47
2019-06-15T05:09:34.136Z,21.53
2019-06-15T05:10:37.646Z,21.54
2019-06-15T05:11:41.688Z,21.58
2019-06-15T05:12:45.217Z,21.58
2019-06-15T05:13:49.445Z,21.59
2019-06-15T05:14:52.962Z,21.60
2019-06-15T05:15:57.078Z,21.63
2019-06-15T05:17:00.666Z,21.66
2019-06-15T05:18:04.782Z,21.71
2019-06-15T05:19:08.410Z,21.74
2019-06-15T05:20:15.957Z,21.78
2019-06-15T05:21:19.547Z,21.85
2019-06-15T05:22:23.722Z,21.91
2019-06-15T05:23:27.296Z,21.92
2019-06-15T05:24:31.367Z,21.94
2019-06-15T05:25:34.907Z,22.00
2019-06-15T05:26:39.269Z,22.05
2019-06-15T05:27:42.861Z,22.07
2019-06-15T05:28:46.996Z,22.02
2019-06-15T05:29:50.648Z,21.97
2019-06-15T05:30:54.850Z,21.91
2019-06-15T05:31:58.524Z,21.91
2019-06-15T05:33:02.860Z,21.97
2019-06-15T05:34:06.418Z,21.99
2019-06-15T05:35:11.206Z,22.03
2019-06-15T05:36:14.788Z,22.09
2019-06-15T05:37:19.238Z,22.15
2019-06-15T05:38:22.909Z,22.21
2019-06-15T05:39:27.093Z,22.20
2019-06-15T05:40:30.603Z,22.21
2019-06-15T05:41:34.667Z,22.25
2019-06-15T05:42:38.264Z,22.30
2019-06-15T05:43:42.469Z,22.34
2019-06-15T05:44:46.210Z,22.37
2019-06-15T05:45:50.485Z,22.41
2019-06-15T05:46:54.170Z,22.45
2019-06-15T05:47:58.354Z,22.50
2019-06-15T05:49:01.960Z,22.54
2019-06-15T05:50:07.944Z,22.58
2019-06-15T05:51:11.691Z,22.64
2019-06-15T05:52:15.781Z,22.68
2019-06-15T05:53:19.273Z,22.73
2019-06-15T05:54:23.636Z,22.76
2019-06-15T05:55:27.481Z,22.79
2019-06-15T05:56:33.533Z,22.81
2019-06-15T05:57:37.157Z,22.83
2019-06-15T05:58:41.279Z,22.83
2019-06-15T05:59:44.859Z,22.85
2019-06-15T06:00:49.256Z,22.85
2019-06-15T06:01:52.871Z,22.87
2019-06-15T06:02:57.066Z,22.89
2019-06-15T06:04:00.667Z,22.91
2019-06-15T06:05:08.289Z,22.94
2019-06-15T06:06:11.932Z,22.92
2019-06-15T06:07:16.114Z,22.96
2019-06-15T06:08:19.844Z,22.94
2019-06-15T06:09:24.037Z,22.94
2019-06-15T06:10:27.728Z,22.97
2019-06-15T06:11:31.858Z,22.96
2019-06-15T06:12:35.785Z,22.99
2019-06-15T06:13:40.227Z,23.00
2019-06-15T06:14:43.741Z,23.03
2019-06-15T06:15:47.933Z,23.06
2019-06-15T06:16:51.443Z,23.03
2019-06-15T06:17:55.828Z,23.04
2019-06-15T06:18:59.747Z,23.07
2019-06-15T06:20:05.549Z,23.09
2019-06-15T06:21:09.627Z,23.07
2019-06-15T06:22:13.759Z,23.05
2019-06-15T06:23:17.548Z,23.08
2019-06-15T06:24:21.931Z,23.13
2019-06-15T06:25:27.557Z,23.11
2019-06-15T06:26:32.131Z,23.11
2019-06-15T06:27:36.897Z,23.13
2019-06-15T06:28:54.089Z,23.18
2019-06-15T06:29:46.627Z,23.20
2019-06-15T06:30:50.938Z,23.24
2019-06-15T06:31:54.617Z,23.19
2019-06-15T06:32:58.936Z,23.23
2019-06-15T06:34:02.873Z,23.28
2019-06-15T06:35:08.387Z,23.30
2019-06-15T06:36:11.969Z,23.28
2019-06-15T06:37:16.324Z,23.17
2019-06-15T06:38:20.695Z,23.24
2019-06-15T06:39:24.964Z,23.28
2019-06-15T06:40:28.699Z,23.33
2019-06-15T06:41:33.083Z,23.36
2019-06-15T06:42:36.929Z,23.33
2019-06-15T06:43:41.068Z,23.19
2019-06-15T06:44:44.573Z,23.22
2019-06-15T06:45:48.936Z,23.26
2019-06-15T06:46:52.591Z,23.26
2019-06-15T06:47:56.997Z,23.31
2019-06-15T06:49:00.597Z,23.33
2019-06-15T06:50:07.863Z,23.36
2019-06-15T06:51:11.512Z,23.32
2019-06-15T06:52:15.768Z,23.33
2019-06-15T06:53:19.487Z,23.33
2019-06-15T06:54:23.768Z,23.34
2019-06-15T06:55:27.369Z,23.39
2019-06-15T06:56:31.496Z,23.45
2019-06-15T06:57:35.041Z,23.50
2019-06-15T06:58:39.134Z,23.50
2019-06-15T06:59:42.731Z,23.49
2019-06-15T07:00:46.831Z,23.53
2019-06-15T07:01:50.315Z,23.49
2019-06-15T07:02:54.406Z,23.52
2019-06-15T07:03:57.888Z,23.52
2019-06-15T07:05:01.945Z,23.52
2019-06-15T07:06:05.746Z,23.52
2019-06-15T07:07:09.869Z,23.56
2019-06-15T07:08:13.408Z,23.59
2019-06-15T07:09:17.425Z,23.58
2019-06-15T07:10:20.975Z,23.55
2019-06-15T07:11:25.026Z,23.54
2019-06-15T07:12:28.538Z,23.49
2019-06-15T07:13:32.596Z,23.44
2019-06-15T07:14:36.070Z,23.42
2019-06-15T07:15:40.190Z,23.47
2019-06-15T07:16:43.738Z,23.49
2019-06-15T07:17:47.944Z,23.50
2019-06-15T07:18:51.511Z,23.55
2019-06-15T07:19:55.654Z,23.59
2019-06-15T07:20:59.167Z,23.62
2019-06-15T07:22:03.203Z,23.67
2019-06-15T07:23:06.644Z,23.71
2019-06-15T07:24:10.780Z,23.76
2019-06-15T07:25:14.478Z,23.79
2019-06-15T07:26:18.295Z,23.82
2019-06-15T07:27:21.730Z,23.84
2019-06-15T07:28:25.793Z,23.81
2019-06-15T07:29:29.290Z,23.78
2019-06-15T07:30:33.155Z,23.79
2019-06-15T07:31:36.577Z,23.76
2019-06-15T07:32:40.616Z,23.74
2019-06-15T07:33:44.215Z,23.66
2019-06-15T07:34:48.329Z,23.57
2019-06-15T07:35:51.807Z,23.58
2019-06-15T07:36:55.893Z,23.62
2019-06-15T07:37:59.406Z,23.61
2019-06-15T07:39:03.425Z,23.64
2019-06-15T07:40:07.621Z,23.62
2019-06-15T07:41:11.786Z,23.62
2019-06-15T07:42:15.376Z,23.62
2019-06-15T07:43:19.408Z,23.66
2019-06-15T07:44:22.925Z,23.70
2019-06-15T07:45:27.150Z,23.74
2019-06-15T07:46:30.764Z,23.74
2019-06-15T07:47:34.926Z,23.77
2019-06-15T07:48:38.376Z,23.77
2019-06-15T07:49:42.447Z,23.79
2019-06-15T07:50:45.945Z,23.78
2019-06-15T07:51:50.427Z,23.75
2019-06-15T07:52:54.020Z,23.74
2019-06-15T07:53:58.088Z,23.79
2019-06-15T07:55:01.592Z,23.72
2019-06-15T07:56:05.734Z,23.70
2019-06-15T07:57:09.169Z,23.72
2019-06-15T07:58:24.139Z,23.67
2019-06-15T07:59:18.561Z,23.69
2019-06-15T08:00:22.914Z,23.66
2019-06-15T08:01:26.401Z,23.62
2019-06-15T08:02:30.640Z,23.61
2019-06-15T08:03:34.158Z,23.64
2019-06-15T08:04:38.253Z,23.67
2019-06-15T08:05:41.789Z,23.64
2019-06-15T08:06:45.821Z,23.60
2019-06-15T08:07:49.326Z,23.56
2019-06-15T08:08:53.356Z,23.67
2019-06-15T08:09:56.823Z,23.72
2019-06-15T08:11:00.865Z,23.71
2019-06-15T08:12:04.638Z,23.77
2019-06-15T08:13:08.751Z,23.73
2019-06-15T08:14:12.235Z,23.75
2019-06-15T08:15:16.447Z,23.74
2019-06-15T08:16:19.937Z,23.68
2019-06-15T08:17:24.057Z,23.71
2019-06-15T08:18:27.597Z,23.77
2019-06-15T08:19:31.671Z,23.75
2019-06-15T08:20:35.450Z,23.58
2019-06-15T08:21:39.587Z,23.62
2019-06-15T08:22:43.094Z,23.70
2019-06-15T08:23:47.118Z,23.77
2019-06-15T08:24:50.590Z,23.84
2019-06-15T08:25:54.822Z,23.91
2019-06-15T08:26:58.321Z,23.99
2019-06-15T08:28:02.498Z,24.08
2019-06-15T08:29:05.949Z,24.06
2019-06-15T08:30:12.154Z,23.97
2019-06-15T08:31:15.718Z,23.99
2019-06-15T08:32:19.808Z,23.99
2019-06-15T08:33:23.271Z,24.00
2019-06-15T08:34:27.270Z,24.01
2019-06-15T08:35:30.885Z,24.00
2019-06-15T08:36:35.043Z,23.94
2019-06-15T08:37:38.636Z,23.91
2019-06-15T08:38:42.654Z,23.85
2019-06-15T08:39:46.131Z,23.82
2019-06-15T08:40:50.253Z,23.78
2019-06-15T08:41:56.801Z,23.81
2019-06-15T08:42:59.500Z,23.88
2019-06-15T08:44:03.043Z,23.83
2019-06-15T08:45:09.424Z,23.87
2019-06-15T08:46:12.882Z,23.94
2019-06-15T08:47:17.092Z,24.04
2019-06-15T08:48:20.686Z,24.12
2019-06-15T08:49:25.698Z,24.05
2019-06-15T08:50:29.257Z,23.97
2019-06-15T08:51:33.454Z,24.02
2019-06-15T08:52:37.047Z,23.96
2019-06-15T08:53:41.079Z,23.85
2019-06-15T08:54:44.527Z,23.91
2019-06-15T08:55:48.601Z,23.90
2019-06-15T08:56:52.108Z,23.99
2019-06-15T08:57:56.200Z,24.09
2019-06-15T08:58:59.779Z,24.13
2019-06-15T09:00:05.857Z,24.20
2019-06-15T09:01:09.477Z,24.15
2019-06-15T09:02:13.500Z,24.12
2019-06-15T09:03:16.936Z,24.19
2019-06-15T09:04:21.104Z,24.25
2019-06-15T09:05:24.714Z,24.20
2019-06-15T09:06:28.835Z,24.18
2019-06-15T09:07:32.294Z,24.13
2019-06-15T09:08:36.423Z,24.11
2019-06-15T09:09:39.889Z,24.23
2019-06-15T09:10:44.066Z,24.23
2019-06-15T09:11:47.590Z,24.26
2019-06-15T09:12:51.682Z,24.09
2019-06-15T09:13:55.118Z,24.23
2019-06-15T09:14:59.171Z,24.19
2019-06-15T09:16:02.723Z,24.18
2019-06-15T09:17:06.849Z,24.29
2019-06-15T09:18:10.352Z,24.31
2019-06-15T09:19:14.442Z,24.40
2019-06-15T09:20:18.026Z,24.49
2019-06-15T09:21:22.152Z,24.57
2019-06-15T09:22:25.637Z,24.59
2019-06-15T09:23:29.750Z,24.55
2019-06-15T09:24:33.255Z,24.57
2019-06-15T09:25:37.285Z,24.56
2019-06-15T09:26:40.946Z,24.62
2019-06-15T09:27:45.104Z,24.68
2019-06-15T09:28:48.557Z,24.72
2019-06-15T09:29:52.597Z,24.73
2019-06-15T09:30:56.083Z,24.77
2019-06-15T09:32:00.070Z,24.74
2019-06-15T09:33:03.590Z,24.76
2019-06-15T09:34:18.390Z,24.78
2019-06-15T09:35:12.918Z,24.83
2019-06-15T09:36:16.991Z,24.85
2019-06-15T09:37:20.530Z,24.91
2019-06-15T09:38:24.547Z,24.88
2019-06-15T09:39:27.994Z,24.84
2019-06-15T09:40:32.080Z,24.85
2019-06-15T09:41:35.891Z,24.89
2019-06-15T09:42:39.978Z,24.63
2019-06-15T09:43:43.557Z,24.95
2019-06-15T09:44:47.628Z,24.99
2019-06-15T09:45:51.176Z,25.00
2019-06-15T09:46:59.749Z,25.02
2019-06-15T09:48:03.332Z,25.09
2019-06-15T09:49:07.440Z,25.08
2019-06-15T09:50:11.014Z,24.98
2019-06-15T09:51:15.121Z,24.95
2019-06-15T09:52:18.725Z,24.96
2019-06-15T09:53:22.862Z,24.99
2019-06-15T09:54:28.119Z,25.02
2019-06-15T09:55:32.213Z,25.07
2019-06-15T09:56:35.725Z,25.10
2019-06-15T09:57:39.787Z,25.14
2019-06-15T09:58:43.296Z,25.19
2019-06-15T09:59:47.549Z,25.19
2019-06-15T10:00:51.070Z,25.18
2019-06-15T10:01:55.175Z,25.17
2019-06-15T10:02:58.708Z,24.99
2019-06-15T10:04:02.870Z,24.94
2019-06-15T10:05:07.249Z,25.08
2019-06-15T10:06:11.821Z,25.18
2019-06-15T10:07:15.408Z,25.23
2019-06-15T10:08:19.534Z,25.25
2019-06-15T10:09:23.080Z,25.15
2019-06-15T10:10:27.170Z,25.11
2019-06-15T10:11:30.672Z,25.19
2019-06-15T10:12:34.830Z,25.15
2019-06-15T10:13:38.368Z,25.18
2019-06-15T10:14:42.465Z,25.23
2019-06-15T10:15:45.969Z,25.16
2019-06-15T10:16:49.884Z,25.17
2019-06-15T10:17:53.423Z,25.25
2019-06-15T10:18:57.585Z,25.31
2019-06-15T10:20:01.098Z,25.27
2019-06-15T10:21:05.299Z,25.22
2019-06-15T10:22:08.896Z,25.34
2019-06-15T10:23:13.107Z,25.39
2019-06-15T10:24:16.689Z,25.27
2019-06-15T10:25:20.784Z,25.13
2019-06-15T10:26:24.313Z,25.05
2019-06-15T10:27:28.333Z,25.07
2019-06-15T10:28:31.872Z,25.06
2019-06-15T10:29:41.953Z,25.19
2019-06-15T10:30:41.056Z,25.23
2019-06-15T10:31:45.086Z,25.33
2019-06-15T10:32:48.592Z,25.33
2019-06-15T10:33:52.667Z,25.38
2019-06-15T10:34:56.188Z,25.40
2019-06-15T10:36:00.292Z,25.47
2019-06-15T10:37:03.899Z,25.42
2019-06-15T10:38:08.022Z,25.45
2019-06-15T10:39:11.571Z,25.51
2019-06-15T10:40:16.128Z,25.54
2019-06-15T10:41:19.564Z,25.67
2019-06-15T10:42:23.669Z,25.75
2019-06-15T10:43:27.164Z,25.67
2019-06-15T10:44:31.294Z,25.70
2019-06-15T10:45:34.838Z,25.71
2019-06-15T10:46:38.869Z,25.67
2019-06-15T10:47:42.391Z,25.74
2019-06-15T10:48:46.453Z,25.90
2019-06-15T10:49:50.060Z,25.97
2019-06-15T10:50:54.259Z,25.89
2019-06-15T10:51:58.096Z,25.78
2019-06-15T10:53:04.333Z,25.82
2019-06-15T10:54:07.529Z,25.88
2019-06-15T10:55:12.676Z,26.00
2019-06-15T10:56:16.123Z,26.10
2019-06-15T10:57:20.317Z,26.15
2019-06-15T10:58:23.823Z,26.07
2019-06-15T10:59:28.067Z,25.91
2019-06-15T11:00:31.829Z,25.91
2019-06-15T11:01:36.033Z,25.98
2019-06-15T11:02:39.677Z,26.14
2019-06-15T11:03:43.972Z,26.01
2019-06-15T11:04:47.715Z,26.09
2019-06-15T11:05:54.884Z,26.16
2019-06-15T11:06:58.338Z,26.21
2019-06-15T11:08:02.427Z,26.25
2019-06-15T11:09:08.144Z,26.24
2019-06-15T11:10:15.008Z,26.28
2019-06-15T11:11:23.198Z,25.92
2019-06-15T11:12:27.412Z,26.01
2019-06-15T11:13:30.969Z,26.05
2019-06-15T11:14:35.251Z,26.08
2019-06-15T11:15:39.559Z,26.30
2019-06-15T11:16:43.833Z,26.51
2019-06-15T11:17:47.570Z,26.74
2019-06-15T11:18:51.719Z,26.73
2019-06-15T11:19:55.154Z,26.82
2019-06-15T11:20:59.340Z,26.95
2019-06-15T11:22:02.884Z,26.96
2019-06-15T11:23:07.183Z,27.04
2019-06-15T11:24:10.858Z,27.16
2019-06-15T11:25:14.985Z,27.15
2019-06-15T11:26:18.510Z,27.18
2019-06-15T11:27:22.793Z,27.10
2019-06-15T11:28:26.504Z,26.94
2019-06-15T11:29:30.695Z,26.88
2019-06-15T11:30:34.346Z,26.84
2019-06-15T11:31:38.398Z,26.81
2019-06-15T11:32:42.010Z,26.84
2019-06-15T11:33:46.196Z,26.78
2019-06-15T11:34:49.722Z,26.75
2019-06-15T11:35:53.779Z,26.80
2019-06-15T11:36:57.370Z,26.92
2019-06-15T11:38:01.424Z,26.92
2019-06-15T11:39:06.699Z,26.97
2019-06-15T11:40:11.882Z,27.00
2019-06-15T11:41:15.463Z,27.09
2019-06-15T11:42:19.650Z,27.08
2019-06-15T11:43:23.399Z,27.13
2019-06-15T11:44:27.484Z,27.03
2019-06-15T11:45:31.096Z,26.97
2019-06-15T11:46:35.447Z,26.94
2019-06-15T11:47:39.052Z,27.01
2019-06-15T11:48:43.217Z,27.18
2019-06-15T11:49:46.743Z,27.25
2019-06-15T11:50:50.915Z,27.31
2019-06-15T11:51:54.656Z,27.40
2019-06-15T11:52:58.785Z,27.48
2019-06-15T11:54:02.372Z,27.64
2019-06-15T11:55:07.400Z,27.58
2019-06-15T11:56:11.538Z,27.50
2019-06-15T11:57:16.364Z,27.48
2019-06-15T11:58:20.043Z,27.41
2019-06-15T11:59:24.162Z,27.48
2019-06-15T12:00:31.822Z,27.56
2019-06-15T12:01:36.190Z,27.79
2019-06-15T12:02:39.732Z,27.79
2019-06-15T12:03:44.129Z,28.03
2019-06-15T12:04:58.091Z,27.90
2019-06-15T12:05:53.499Z,27.90
2019-06-15T12:06:57.085Z,27.76
2019-06-15T12:08:01.370Z,27.82
2019-06-15T12:09:07.332Z,27.75
2019-06-15T12:10:11.638Z,27.75
2019-06-15T12:11:15.392Z,27.92
2019-06-15T12:12:19.786Z,28.05
2019-06-15T12:13:23.392Z,27.96
2019-06-15T12:14:27.460Z,27.96
2019-06-15T12:15:31.165Z,27.93
2019-06-15T12:16:35.429Z,27.81
2019-06-15T12:17:43.589Z,27.94
2019-06-15T12:18:47.731Z,28.07
2019-06-15T12:19:51.484Z,28.07
2019-06-15T12:20:55.762Z,28.25
2019-06-15T12:22:00.291Z,28.37
2019-06-15T12:23:04.478Z,28.08
2019-06-15T12:24:08.066Z,28.08
2019-06-15T12:25:12.548Z,28.15
2019-06-15T12:26:16.127Z,27.96
2019-06-15T12:27:20.444Z,27.60
2019-06-15T12:28:24.101Z,27.66
2019-06-15T12:29:28.270Z,27.66
2019-06-15T12:30:46.696Z,27.66
2019-06-15T12:31:43.803Z,27.63
2019-06-15T12:32:47.485Z,27.63
2019-06-15T12:33:51.722Z,27.63
2019-06-15T12:34:55.430Z,27.91
2019-06-15T12:35:59.518Z,28.34
2019-06-15T12:37:03.119Z,28.64
2019-06-15T12:38:07.334Z,28.82
2019-06-15T12:39:10.999Z,28.82
2019-06-15T12:40:20.196Z,29.12
2019-06-15T12:41:23.756Z,28.85
2019-06-15T12:42:27.814Z,28.85
2019-06-15T12:43:31.258Z,28.75
2019-06-15T12:44:35.289Z,28.72
2019-06-15T12:45:38.832Z,28.82
2019-06-15T12:46:42.880Z,28.74
2019-06-15T12:47:46.318Z,28.74
2019-06-15T12:48:50.338Z,28.68
2019-06-15T12:49:53.776Z,28.67
2019-06-15T12:50:57.877Z,28.76
2019-06-15T12:52:01.409Z,28.76
2019-06-15T12:53:05.521Z,28.90
2019-06-15T12:54:09.028Z,28.44
2019-06-15T12:55:13.289Z,28.00
2019-06-15T12:56:16.793Z,28.00
2019-06-15T12:57:20.910Z,27.80
2019-06-15T12:58:24.418Z,28.02
2019-06-15T12:59:28.191Z,28.35
2019-06-15T13:00:36.642Z,28.35
2019-06-15T13:01:40.697Z,28.60
2019-06-15T13:02:44.140Z,28.64
2019-06-15T13:03:48.169Z,28.64
2019-06-15T13:04:51.609Z,28.70
2019-06-15T13:05:55.718Z,28.79
2019-06-15T13:06:59.173Z,28.57
2019-06-15T13:08:03.364Z,28.49
2019-06-15T13:09:08.256Z,28.67
2019-06-15T13:10:13.726Z,28.64
2019-06-15T13:11:17.568Z,28.59
2019-06-15T13:12:21.779Z,28.59
2019-06-15T13:13:25.224Z,28.48
2019-06-15T13:14:29.452Z,28.46
2019-06-15T13:15:33.118Z,28.42
2019-06-15T13:16:39.898Z,28.41
2019-06-15T13:17:43.556Z,28.32
2019-06-15T13:18:47.615Z,28.32
2019-06-15T13:19:51.184Z,28.01
2019-06-15T13:20:55.245Z,27.93
2019-06-15T13:21:58.685Z,27.99
2019-06-15T13:23:02.734Z,27.99
2019-06-15T13:24:06.236Z,28.10
2019-06-15T13:25:10.609Z,28.10
2019-06-15T13:26:14.107Z,28.01
2019-06-15T13:27:18.299Z,28.01
2019-06-15T13:28:21.924Z,28.00
2019-06-15T13:29:26.016Z,28.00
2019-06-15T13:30:29.526Z,27.95
2019-06-15T13:31:33.692Z,27.95
2019-06-15T13:32:37.166Z,27.75
2019-06-15T13:33:41.331Z,27.67
2019-06-15T13:34:44.767Z,27.67
2019-06-15T13:35:48.856Z,27.62
2019-06-15T13:36:52.293Z,27.66
2019-06-15T13:37:56.354Z,27.56
2019-06-15T13:38:59.793Z,27.38
2019-06-15T13:40:05.321Z,27.37
2019-06-15T13:41:08.781Z,27.43
2019-06-15T13:42:12.883Z,27.46
2019-06-15T13:43:16.344Z,27.40
2019-06-15T13:44:20.389Z,27.34
2019-06-15T13:45:24.105Z,27.31